Time;durP1;ratioP1;P1;durP2;ratioP2;P2;SDS_P1;SDS_P2;PMS_P1;PMS_P2;Temp;Humidity;BMP_temperature;BMP_pressure;BME280_temperature;BME280_humidity;BME280_pressure;Samples;Min_cycle;Max_cycle;Signal;HPM_P1;HPM_P2
2021/04/23 00:00:23;;;;;;;1.87;1.53;;;;;;;3.44;80.66;101445.41;4991917;28;20173;-76
2021/04/23 00:02:49;;;;;;;1.10;1.10;;;;;;;3.46;80.61;101449.50;4991660;28;20177;-76
2021/04/23 00:05:15;;;;;;;4.07;2.00;;;;;;;3.49;80.84;101432.84;4991722;28;20264;-76
2021/04/23 00:07:41;;;;;;;16.80;1.43;;;;;;;3.54;80.92;101438.34;4991753;28;20177;-74
2021/04/23 00:10:11;;;;;;;1.43;0.80;;;;;;;3.57;81.06;101443.25;4991951;28;20215;-76
2021/04/23 00:12:36;;;;;;;13.07;1.27;;;;;;;3.62;81.00;101444.41;4991623;28;20572;-73
2021/04/23 00:15:02;;;;;;;0.70;0.53;;;;;;;3.65;81.23;101444.75;4991688;28;20188;-76
2021/04/23 00:17:28;;;;;;;0.80;0.80;;;;;;;3.71;81.05;101454.59;4991516;28;20177;-76
2021/04/23 00:19:53;;;;;;;1.43;1.33;;;;;;;3.77;80.89;101440.13;4991470;28;20180;-76
2021/04/23 00:22:18;;;;;;;11.33;1.30;;;;;;;3.83;81.14;101436.47;4991348;28;20243;-75
2021/04/23 00:24:44;;;;;;;2.90;2.20;;;;;;;3.84;81.27;101430.00;4991758;28;20173;-77
2021/04/23 00:27:09;;;;;;;1.80;1.13;;;;;;;3.84;81.13;101438.09;4991474;28;20625;-76
2021/04/23 00:29:35;;;;;;;0.97;0.60;;;;;;;3.83;81.55;101449.97;4991578;28;20200;-75
2021/04/23 00:34:46;;;;;;;1.77;1.13;;;;;;;3.94;81.13;101442.06;4991275;28;20208;-76
2021/04/23 00:37:12;;;;;;;0.33;0.17;;;;;;;3.95;81.64;101444.50;4991376;28;20177;-72
2021/04/23 00:39:37;;;;;;;1.70;1.60;;;;;;;3.97;81.38;101439.69;4991258;28;20174;-71
2021/04/23 00:42:04;;;;;;;2.67;1.57;;;;;;;4.03;81.72;101437.88;4991022;28;20215;-75
2021/04/23 00:44:30;;;;;;;1.40;1.10;;;;;;;4.08;81.74;101440.69;4991263;28;20643;-76
2021/04/23 00:46:55;;;;;;;2.53;1.20;;;;;;;4.14;81.41;101435.13;4991347;28;20185;-74
2021/04/23 00:49:21;;;;;;;2.60;1.37;;;;;;;4.20;81.11;101430.63;4991285;28;20185;-74
2021/04/23 00:51:58;;;;;;;1.13;1.03;;;;;;;4.22;80.70;101425.78;4994397;28;20735;-72
2021/04/23 00:54:24;;;;;;;0.53;0.53;;;;;;;4.25;80.87;101419.88;4995249;28;20180;-74
2021/04/23 00:56:50;;;;;;;2.43;0.83;;;;;;;4.24;80.68;101429.06;4995112;28;20177;-73
2021/04/23 00:59:16;;;;;;;2.10;1.00;;;;;;;4.26;80.60;101421.53;4995116;28;20187;-75
2021/04/23 01:01:43;;;;;;;0.47;0.47;;;;;;;4.30;80.14;101424.56;4995167;28;20181;-76
2021/04/23 01:04:11;;;;;;;0.60;0.60;;;;;;;4.28;80.60;101424.81;4994954;28;20188;-72
2021/04/23 01:06:37;;;;;;;2.27;2.17;;;;;;;4.30;80.33;101432.66;4995132;28;20181;-77
2021/04/23 01:09:19;;;;;;;6.93;1.30;;;;;;;4.31;79.88;101435.13;4994844;28;20392;-78
2021/04/23 01:11:46;;;;;;;1.10;1.03;;;;;;;4.34;79.82;101439.22;4995006;28;20208;-75
2021/04/23 01:14:12;;;;;;;1.97;1.77;;;;;;;4.35;79.98;101430.88;4994868;28;20176;-74
2021/04/23 01:16:38;;;;;;;1.30;1.20;;;;;;;4.36;79.84;101426.28;4994813;28;20169;-73
2021/04/23 01:19:06;;;;;;;1.53;0.90;;;;;;;4.35;79.76;101421.94;4994868;28;20231;-72
2021/04/23 01:21:33;;;;;;;1.40;0.67;;;;;;;4.35;79.88;101425.47;4994888;28;20270;-74
2021/04/23 01:24:01;;;;;;;3.57;2.00;;;;;;;4.36;80.07;101427.13;4994442;28;20651;-74
2021/04/23 01:26:30;;;;;;;4.87;2.53;;;;;;;4.36;80.32;101445.22;4994638;28;20269;-74
2021/04/23 01:28:56;;;;;;;0.90;0.70;;;;;;;4.35;79.76;101444.41;4994720;28;20528;-73
2021/04/23 01:31:25;;;;;;;1.70;1.60;;;;;;;4.37;79.75;101444.16;4994559;28;20256;-71
2021/04/23 01:33:56;;;;;;;2.20;1.40;;;;;;;4.38;79.57;101440.41;4995130;28;20606;-70
2021/04/23 01:36:21;;;;;;;1.50;1.50;;;;;;;4.38;79.64;101449.31;4997480;28;20166;-70
2021/04/23 01:38:49;;;;;;;4.63;0.93;;;;;;;4.38;79.83;101432.28;4995903;28;20184;-71
2021/04/23 01:41:15;;;;;;;1.07;0.73;;;;;;;4.39;79.88;101434.72;4994461;28;20193;-71
2021/04/23 01:43:42;;;;;;;1.77;1.60;;;;;;;4.39;79.57;101434.72;4994294;28;20240;-71
2021/04/23 01:46:08;;;;;;;1.77;1.67;;;;;;;4.46;79.24;101437.25;4994241;28;20177;-73
2021/04/23 01:48:34;;;;;;;0.37;0.33;;;;;;;4.48;79.40;101440.53;4994212;28;20186;-70
2021/04/23 01:51:02;;;;;;;4.23;1.20;;;;;;;4.50;79.41;101443.03;4994002;28;20208;-72
2021/04/23 01:53:27;;;;;;;1.77;0.87;;;;;;;4.48;79.25;101444.09;4994007;28;20184;-72
2021/04/23 01:55:53;;;;;;;1.63;1.53;;;;;;;4.49;79.49;101453.03;4994117;28;20185;-70
2021/04/23 01:58:19;;;;;;;3.23;1.63;;;;;;;4.50;79.29;101449.25;4994004;28;20174;-71
2021/04/23 02:00:49;;;;;;;1.57;1.47;;;;;;;4.51;79.38;101448.19;4993749;28;20177;-72
2021/04/23 02:03:16;;;;;;;1.00;1.00;;;;;;;4.53;79.38;101448.75;4993771;28;20185;-71
2021/04/23 02:05:43;;;;;;;7.17;1.50;;;;;;;4.54;79.01;101449.56;4993857;28;20559;-71
2021/04/23 02:08:12;;;;;;;4.23;1.63;;;;;;;4.54;79.30;101450.41;4993817;28;20181;-71
2021/04/23 02:10:42;;;;;;;0.97;0.97;;;;;;;4.54;79.45;101450.41;4993607;28;20201;-70
2021/04/23 02:13:08;;;;;;;3.40;1.97;;;;;;;4.51;79.15;101453.59;4993733;28;20177;-71
2021/04/23 02:15:34;;;;;;;1.53;1.37;;;;;;;4.52;79.34;101463.34;4993565;28;20174;-70
2021/04/23 02:18:01;;;;;;;1.27;1.27;;;;;;;4.50;79.41;101457.38;4993664;28;20646;-71
2021/04/23 02:20:30;;;;;;;0.70;0.70;;;;;;;4.47;79.73;101466.78;4993660;28;20656;-71
2021/04/23 02:22:57;;;;;;;0.90;0.50;;;;;;;4.47;80.10;101466.78;4993406;28;20641;-72
2021/04/23 02:25:22;;;;;;;0.73;0.73;;;;;;;4.45;79.51;101476.22;4993522;28;20178;-71
2021/04/23 02:27:49;;;;;;;0.40;0.40;;;;;;;4.45;79.85;101463.50;4993512;28;20535;-71
2021/04/23 02:30:23;;;;;;;0.57;0.57;;;;;;;4.48;79.78;101478.41;4993254;28;20695;-72
2021/04/23 02:32:48;;;;;;;2.80;1.97;;;;;;;4.50;79.94;101470.91;4993324;28;20200;-73
2021/04/23 02:35:14;;;;;;;0.43;0.43;;;;;;;4.51;79.57;101469.84;4993271;28;20634;-72
2021/04/23 02:37:40;;;;;;;1.50;0.60;;;;;;;4.52;79.79;101467.94;4993277;28;20173;-71
2021/04/23 02:40:09;;;;;;;0.53;0.53;;;;;;;4.51;79.60;101461.72;4992931;28;20238;-71
2021/04/23 02:42:35;;;;;;;3.30;3.00;;;;;;;4.53;79.70;101470.41;4993237;28;20174;-73
2021/04/23 02:45:02;;;;;;;1.70;1.43;;;;;;;4.54;79.43;101477.44;4993092;28;20173;-70
2021/04/23 02:47:27;;;;;;;1.37;1.23;;;;;;;4.55;79.30;101479.09;4992989;28;20239;-71
2021/04/23 02:49:52;;;;;;;4.07;1.93;;;;;;;4.57;79.36;101473.44;4993080;28;20200;-70
2021/04/23 02:52:18;;;;;;;1.43;0.77;;;;;;;4.55;79.05;101483.69;4992844;28;20637;-71
2021/04/23 02:54:44;;;;;;;1.53;1.43;;;;;;;4.57;79.58;101476.94;4992894;28;20181;-72
2021/04/23 02:57:09;;;;;;;1.20;0.43;;;;;;;4.57;79.30;101476.94;4992892;28;20186;-71
2021/04/23 02:59:35;;;;;;;0.40;0.40;;;;;;;4.56;79.41;101483.44;4992943;28;20177;-71
2021/04/23 03:02:00;;;;;;;2.63;1.77;;;;;;;4.57;79.56;101486.97;4992793;28;20191;-70
2021/04/23 03:04:27;;;;;;;5.73;1.17;;;;;;;4.58;79.39;101481.31;4993140;28;20272;-71
2021/04/23 03:06:56;;;;;;;4.43;1.53;;;;;;;4.61;79.34;101488.91;4992805;28;20173;-70
2021/04/23 03:09:21;;;;;;;2.80;1.60;;;;;;;4.63;79.68;101485.97;4992638;28;20173;-71
2021/04/23 03:11:47;;;;;;;9.70;2.33;;;;;;;4.62;79.21;101492.44;4992569;28;20616;-71
2021/04/23 03:14:12;;;;;;;1.03;1.03;;;;;;;4.61;79.04;101483.50;4991817;28;20625;-70
2021/04/23 03:16:41;;;;;;;5.33;1.90;;;;;;;4.62;79.13;101477.03;4992534;28;20249;-71
2021/04/23 03:19:14;;;;;;;1.37;1.10;;;;;;;4.62;79.31;101489.75;4992383;28;20539;-71
2021/04/23 03:21:40;;;;;;;0.67;0.63;;;;;;;4.61;79.42;101483.50;4992426;28;20165;-71
2021/04/23 03:24:07;;;;;;;0.83;0.80;;;;;;;4.58;79.65;101484.00;4992346;28;20193;-71
2021/04/23 03:26:33;;;;;;;0.93;0.93;;;;;;;4.55;79.41;101476.38;4992525;28;20228;-75
2021/04/23 03:28:58;;;;;;;5.33;1.00;;;;;;;4.54;78.87;101471.22;4992336;28;20523;-71
2021/04/23 03:31:24;;;;;;;0.40;0.30;;;;;;;4.56;78.77;101464.50;4992264;28;20243;-70
2021/04/23 03:33:49;;;;;;;0.97;0.83;;;;;;;4.58;79.29;101462.34;4992024;28;20583;-72
2021/04/23 03:36:15;;;;;;;0.73;0.50;;;;;;;4.59;79.00;101464.00;4992341;28;20258;-71
2021/04/23 03:38:44;;;;;;;1.50;1.50;;;;;;;4.58;79.02;101462.34;4992200;28;20296;-71
2021/04/23 03:41:15;;;;;;;1.43;1.37;;;;;;;4.60;78.92;101471.03;4992080;28;20528;-71
2021/04/23 03:43:42;;;;;;;0.27;0.10;;;;;;;4.62;78.08;101474.31;4991945;28;20185;-73
2021/04/23 03:46:07;;;;;;;5.57;1.97;;;;;;;4.62;78.09;101463.50;4992038;28;20173;-69
2021/04/23 03:48:33;;;;;;;0.70;0.63;;;;;;;4.64;78.42;101472.22;4991916;28;20180;-73
2021/04/23 03:51:00;;;;;;;2.03;1.50;;;;;;;4.62;78.02;101465.38;4991986;28;20201;-71
2021/04/23 03:53:25;;;;;;;4.90;0.70;;;;;;;4.60;78.96;101464.81;4991889;28;20185;-72
2021/04/23 03:55:54;;;;;;;0.00;0.00;;;;;;;4.61;78.75;101463.75;4991771;28;20239;-73
2021/04/23 03:58:21;;;;;;;0.60;0.50;;;;;;;4.59;78.73;101469.41;4991715;28;20169;-73
2021/04/23 04:00:55;;;;;;;0.83;0.67;;;;;;;4.60;78.54;101465.63;4991730;28;20185;-71
2021/04/23 04:03:21;;;;;;;0.77;0.70;;;;;;;4.62;78.71;101477.03;4991670;28;20260;-75
2021/04/23 04:05:48;;;;;;;3.63;1.20;;;;;;;4.64;78.21;101480.34;4991689;28;20204;-71
2021/04/23 04:08:14;;;;;;;0.40;0.40;;;;;;;4.68;78.39;101486.88;4991929;28;20173;-73
2021/04/23 04:10:40;;;;;;;4.90;2.20;;;;;;;4.68;78.25;101495.00;4991545;28;20201;-74
2021/04/23 04:13:06;;;;;;;1.53;1.37;;;;;;;4.68;78.77;101489.59;4991512;28;20169;-75
2021/04/23 04:15:32;;;;;;;1.53;1.43;;;;;;;4.67;78.66;101481.72;4991752;28;20170;-71
2021/04/23 04:17:57;;;;;;;0.87;0.83;;;;;;;4.67;78.56;101487.13;4990174;28;20208;-71
2021/04/23 04:20:25;;;;;;;2.83;2.73;;;;;;;4.64;78.38;101499.28;4991491;28;20177;-71
2021/04/23 04:22:51;;;;;;;1.10;1.07;;;;;;;4.66;78.53;101493.63;4991394;28;20177;-73
2021/04/23 04:25:47;;;;;;;0.83;0.83;;;;;;;4.67;78.44;101487.94;4991402;28;20532;-71
2021/04/23 04:28:13;;;;;;;0.20;0.20;;;;;;;4.66;78.52;101497.16;4987022;28;20516;-72
2021/04/23 04:30:39;;;;;;;1.07;1.03;;;;;;;4.67;78.85;101496.06;4991364;28;20212;-71
2021/04/23 04:33:05;;;;;;;7.10;1.47;;;;;;;4.69;78.37;101499.34;4991342;28;20177;-74
2021/04/23 04:35:31;;;;;;;2.23;1.17;;;;;;;4.71;78.34;101499.09;4991394;28;20638;-70
2021/04/23 04:37:58;;;;;;;0.67;0.30;;;;;;;4.72;77.86;101504.25;4991341;28;20228;-71
2021/04/23 04:40:25;;;;;;;0.63;0.63;;;;;;;4.74;77.82;101499.41;4991148;28;20200;-72
2021/04/23 04:42:51;;;;;;;0.47;0.43;;;;;;;4.77;77.59;101509.78;4991260;28;20173;-71
2021/04/23 04:45:19;;;;;;;1.83;1.17;;;;;;;4.80;77.66;101507.63;4991060;28;20629;-70
2021/04/23 04:47:46;;;;;;;0.73;0.73;;;;;;;4.81;77.58;101523.63;4991390;28;20181;-71
2021/04/23 04:50:15;;;;;;;0.20;0.20;;;;;;;4.83;77.74;101523.38;4991119;28;20250;-71
2021/04/23 04:52:41;;;;;;;0.13;0.13;;;;;;;4.82;77.92;101522.56;4991106;28;20256;-72
2021/04/23 04:55:08;;;;;;;0.43;0.43;;;;;;;4.85;77.88;101522.06;4991336;28;20268;-73
2021/04/23 04:57:35;;;;;;;0.53;0.53;;;;;;;4.86;76.76;101537.25;4991421;28;20174;-73
2021/04/23 05:00:05;;;;;;;0.63;0.63;;;;;;;4.89;76.76;101530.50;4991166;28;20184;-71
2021/04/23 05:02:30;;;;;;;1.50;1.40;;;;;;;4.90;77.12;101532.97;4991049;28;20173;-73
2021/04/23 05:04:55;;;;;;;2.10;0.63;;;;;;;4.90;77.49;101529.44;4991028;28;20521;-75
2021/04/23 05:07:21;;;;;;;6.27;1.97;;;;;;;4.91;77.53;101542.72;4990965;28;20256;-73
2021/04/23 05:09:46;;;;;;;1.40;1.30;;;;;;;4.93;76.92;101545.22;4991329;28;20223;-72
2021/04/23 05:12:11;;;;;;;0.70;0.70;;;;;;;4.96;77.47;101533.88;4991025;28;20820;-73
2021/04/23 05:14:37;;;;;;;2.40;1.50;;;;;;;4.94;77.13;101544.97;4991154;28;20178;-73
2021/04/23 05:17:02;;;;;;;1.43;0.90;;;;;;;4.97;77.13;101557.19;4990962;28;20173;-72
2021/04/23 05:19:27;;;;;;;1.53;1.20;;;;;;;4.98;77.17;101550.72;4991029;28;20188;-71
2021/04/23 05:21:53;;;;;;;1.50;1.37;;;;;;;4.99;77.07;101558.59;4990756;28;20633;-72
2021/04/23 05:24:18;;;;;;;4.13;1.10;;;;;;;4.98;77.50;101556.13;4989570;28;20275;-72
2021/04/23 05:26:44;;;;;;;0.60;0.60;;;;;;;4.99;77.19;101553.16;4990971;28;20177;-72
2021/04/23 05:29:09;;;;;;;2.87;1.13;;;;;;;4.99;77.25;101564.00;4991233;28;20178;-72
2021/04/23 05:31:34;;;;;;;1.50;0.83;;;;;;;4.99;76.51;101560.47;4991505;28;20716;-74
2021/04/23 05:34:00;;;;;;;2.37;1.80;;;;;;;5.01;76.60;101558.34;4990489;28;20659;-73
2021/04/23 05:36:26;;;;;;;1.70;1.60;;;;;;;5.05;76.89;101559.47;4991884;28;20170;-72
2021/04/23 05:38:51;;;;;;;0.57;0.43;;;;;;;5.09;76.31;101574.19;4994370;28;20637;-71
2021/04/23 05:41:17;;;;;;;1.50;1.40;;;;;;;5.11;76.21;101572.03;4994234;28;20193;-72
2021/04/23 05:43:45;;;;;;;3.77;2.07;;;;;;;5.16;76.37;101566.69;4994178;28;20189;-72
2021/04/23 05:46:11;;;;;;;2.10;1.90;;;;;;;5.20;76.67;101570.53;4994287;28;20173;-72
2021/04/23 05:48:36;;;;;;;5.97;0.53;;;;;;;5.24;75.86;101574.41;4994275;28;20188;-72
2021/04/23 05:51:02;;;;;;;2.30;1.60;;;;;;;5.25;76.00;101573.34;4994269;28;20198;-72
2021/04/23 05:53:27;;;;;;;12.20;0.60;;;;;;;5.27;75.78;101573.91;4993999;28;20236;-73
2021/04/23 05:55:53;;;;;;;7.13;1.50;;;;;;;5.30;74.99;101580.72;4994180;28;20181;-73
2021/04/23 05:58:18;;;;;;;0.97;0.87;;;;;;;5.35;75.33;101580.78;4993964;28;20185;-73
2021/04/23 06:00:44;;;;;;;1.30;0.80;;;;;;;5.40;75.56;101575.47;4994607;28;20177;-77
2021/04/23 06:03:11;;;;;;;1.43;1.17;;;;;;;5.44;74.34;101586.59;4993720;28;20177;-73
2021/04/23 06:05:36;;;;;;;3.70;0.87;;;;;;;5.47;74.23;101583.41;4993857;28;20633;-73
2021/04/23 06:08:08;;;;;;;5.50;2.27;;;;;;;5.46;73.66;101584.47;4994129;28;20174;-73
2021/04/23 06:10:34;;;;;;;5.17;2.07;;;;;;;5.48;73.70;101580.44;4993864;28;20736;-73
2021/04/23 06:13:00;;;;;;;1.47;0.70;;;;;;;5.52;74.94;101578.06;4993785;28;20187;-72
2021/04/23 06:15:27;;;;;;;4.40;1.00;;;;;;;5.52;73.41;101578.88;4993661;28;20196;-73
2021/04/23 06:17:54;;;;;;;0.47;0.47;;;;;;;5.54;74.04;101592.19;4993777;28;20178;-73
2021/04/23 06:20:21;;;;;;;2.07;1.03;;;;;;;5.61;74.05;101580.09;4993724;28;20183;-75
2021/04/23 06:22:47;;;;;;;2.23;1.27;;;;;;;5.70;73.96;101595.94;4993469;28;20181;-73
2021/04/23 06:25:15;;;;;;;1.10;1.00;;;;;;;5.70;73.31;101591.31;4993722;28;20679;-73
2021/04/23 06:27:42;;;;;;;1.20;1.10;;;;;;;5.74;73.66;101589.75;4993578;28;20169;-73
2021/04/23 06:30:12;;;;;;;3.50;0.83;;;;;;;5.81;73.81;101597.72;4993269;28;20197;-74
2021/04/23 06:32:40;;;;;;;0.33;0.20;;;;;;;5.86;72.94;101604.00;4993435;28;20181;-73
2021/04/23 06:35:06;;;;;;;1.80;1.03;;;;;;;5.90;73.42;101609.78;4993347;28;20173;-74
2021/04/23 06:37:32;;;;;;;1.53;1.43;;;;;;;5.94;72.08;101609.03;4993403;28;20173;-72
2021/04/23 06:39:57;;;;;;;1.57;1.40;;;;;;;5.90;71.69;101601.63;4993205;28;20188;-73
2021/04/23 06:42:22;;;;;;;0.50;0.47;;;;;;;5.93;72.11;101601.97;4993178;28;20216;-78
2021/04/23 06:44:48;;;;;;;12.73;1.47;;;;;;;5.92;72.80;101611.16;4993133;28;20646;-80
2021/04/23 06:47:13;;;;;;;1.87;1.40;;;;;;;5.90;73.13;101615.19;4992912;28;20616;-75
2021/04/23 06:49:38;;;;;;;2.90;2.03;;;;;;;5.97;72.90;101616.69;4992424;28;20174;-75
2021/04/23 06:52:04;;;;;;;2.50;1.57;;;;;;;6.01;72.63;101608.84;5008281;28;20205;-75
2021/04/23 06:54:29;;;;;;;5.17;1.03;;;;;;;6.07;72.04;101615.13;4992010;28;20543;-72
2021/04/23 06:56:55;;;;;;;4.20;1.10;;;;;;;6.07;71.49;101617.84;4990950;28;20193;-73
2021/04/23 06:59:20;;;;;;;0.73;0.73;;;;;;;6.15;70.88;101622.84;4992121;28;20189;-73
2021/04/23 07:01:45;;;;;;;1.13;0.90;;;;;;;6.16;70.14;101611.75;4991752;28;20189;-77
2021/04/23 07:04:11;;;;;;;1.40;1.30;;;;;;;6.13;70.02;101617.69;4992093;28;20259;-74
2021/04/23 07:06:39;;;;;;;0.77;0.57;;;;;;;6.21;70.32;101614.50;4991265;28;20186;-73
2021/04/23 07:09:06;;;;;;;0.80;0.80;;;;;;;6.38;71.23;101628.03;4991865;28;20251;-74
2021/04/23 07:11:32;;;;;;;2.67;1.47;;;;;;;6.33;70.92;101622.53;4992324;28;20216;-77
2021/04/23 07:13:57;;;;;;;2.93;1.87;;;;;;;6.26;71.11;101625.44;4992565;28;20181;-75
2021/04/23 07:16:22;;;;;;;0.20;0.20;;;;;;;6.25;70.12;101617.56;4992625;28;20181;-76
2021/04/23 07:18:48;;;;;;;1.83;1.47;;;;;;;6.25;70.15;101639.25;4992436;28;20188;-76
2021/04/23 07:21:13;;;;;;;1.80;1.27;;;;;;;6.24;70.06;101633.03;4992547;28;20177;-76
2021/04/23 07:23:39;;;;;;;6.70;1.93;;;;;;;6.40;71.31;101627.78;4992918;28;20176;-74
2021/04/23 07:26:04;;;;;;;1.90;1.40;;;;;;;6.55;71.22;101626.03;4992344;28;20177;-75
2021/04/23 07:28:29;;;;;;;11.30;1.67;;;;;;;6.46;69.78;101624.03;4992287;28;20166;-75
2021/04/23 07:30:55;;;;;;;1.13;1.10;;;;;;;6.43;69.23;101624.53;4991752;28;20613;-72
2021/04/23 07:33:20;;;;;;;1.80;1.50;;;;;;;6.47;69.55;101629.19;4991566;28;20181;-77
2021/04/23 07:35:47;;;;;;;1.40;1.30;;;;;;;6.49;68.67;101635.19;4991746;28;20212;-75
2021/04/23 07:38:13;;;;;;;1.50;1.23;;;;;;;6.39;68.72;101636.97;4991655;28;20236;-74
2021/04/23 07:40:39;;;;;;;2.93;0.90;;;;;;;6.42;68.98;101631.03;4991646;28;20185;-75
2021/04/23 07:43:04;;;;;;;2.07;1.87;;;;;;;6.62;68.99;101633.16;4991494;28;20166;-72
2021/04/23 07:45:30;;;;;;;1.80;1.40;;;;;;;6.71;68.98;101634.34;4991670;28;20684;-73
2021/04/23 07:47:56;;;;;;;2.40;1.40;;;;;;;6.70;68.39;101633.53;4991513;28;20186;-76
2021/04/23 07:50:24;;;;;;;1.17;1.07;;;;;;;6.62;67.81;101641.28;4991476;28;20251;-73
2021/04/23 07:52:51;;;;;;;1.33;0.73;;;;;;;6.56;66.44;101635.81;4991310;28;20192;-74
2021/04/23 07:55:17;;;;;;;1.43;1.03;;;;;;;6.65;68.15;101638.88;4991468;28;20544;-73
2021/04/23 07:57:42;;;;;;;2.50;1.97;;;;;;;6.82;67.80;101636.09;4991748;28;20174;-71
2021/04/23 08:00:10;;;;;;;2.57;2.37;;;;;;;6.98;67.95;101642.47;4991441;28;20173;-71
2021/04/23 08:02:36;;;;;;;1.20;1.10;;;;;;;7.14;67.34;101636.91;4991303;28;20528;-71
2021/04/23 08:05:02;;;;;;;2.47;1.50;;;;;;;7.23;64.70;101650.84;4991404;28;20211;-71
2021/04/23 08:07:27;;;;;;;3.83;2.20;;;;;;;7.25;64.55;101640.53;4991355;28;20201;-71
2021/04/23 08:09:53;;;;;;;0.20;0.20;;;;;;;7.30;65.00;101635.13;4991493;28;20268;-71
2021/04/23 08:12:18;;;;;;;4.13;1.17;;;;;;;7.12;65.63;101632.81;4990785;28;20209;-70
2021/04/23 08:14:43;;;;;;;1.47;0.90;;;;;;;7.07;65.74;101630.88;4991818;28;20186;-73
2021/04/23 08:17:09;;;;;;;1.00;1.00;;;;;;;7.06;65.47;101625.69;4991831;28;20268;-71
2021/04/23 08:19:35;;;;;;;6.67;2.57;;;;;;;7.03;65.98;101639.81;4991346;28;20180;-71
2021/04/23 08:22:01;;;;;;;3.90;1.53;;;;;;;7.35;64.25;101627.00;4991209;28;20622;-71
2021/04/23 08:24:27;;;;;;;2.87;1.73;;;;;;;7.49;63.26;101627.38;4991142;28;20181;-71
2021/04/23 08:26:52;;;;;;;2.33;2.07;;;;;;;7.60;63.30;101633.72;4990880;28;20180;-71
2021/04/23 08:29:17;;;;;;;1.63;1.53;;;;;;;7.90;64.24;101633.06;4991041;28;20181;-71
2021/04/23 08:31:43;;;;;;;1.50;1.40;;;;;;;7.85;65.03;101636.59;4991060;28;20287;-71
2021/04/23 08:34:11;;;;;;;5.80;1.67;;;;;;;7.48;62.37;101652.94;4990910;28;20178;-71
2021/04/23 08:36:36;;;;;;;1.20;1.20;;;;;;;7.39;62.27;101641.75;4990889;28;20185;-71
2021/04/23 08:39:09;;;;;;;10.20;1.50;;;;;;;7.54;61.97;101651.91;4990945;28;20264;-71
2021/04/23 08:41:36;;;;;;;1.60;1.50;;;;;;;7.58;60.75;101642.16;4990804;28;20672;-71
2021/04/23 08:44:02;;;;;;;0.77;0.63;;;;;;;7.71;61.12;101646.31;4990734;28;20633;-71
2021/04/23 08:46:28;;;;;;;3.13;1.70;;;;;;;7.67;60.29;101646.03;4990836;28;20184;-71
2021/04/23 08:48:55;;;;;;;1.50;1.27;;;;;;;7.74;61.56;101634.91;4990862;28;20178;-71
2021/04/23 08:51:22;;;;;;;1.03;0.97;;;;;;;8.10;62.69;101641.38;4990712;28;20207;-71
2021/04/23 08:53:51;;;;;;;1.20;1.10;;;;;;;8.08;61.19;101638.06;4991001;28;20177;-72
2021/04/23 08:56:16;;;;;;;2.40;1.17;;;;;;;8.09;61.25;101642.41;4990686;28;20177;-73
2021/04/23 08:58:41;;;;;;;2.50;2.40;;;;;;;8.15;61.94;101644.09;4990811;28;20777;-71
2021/04/23 09:01:07;;;;;;;1.27;0.87;;;;;;;7.78;59.26;101646.06;4990924;28;20180;-70
2021/04/23 09:03:32;;;;;;;1.20;1.10;;;;;;;7.80;61.42;101644.72;4990967;28;20558;-71
2021/04/23 09:06:07;;;;;;;1.60;1.30;;;;;;;7.99;60.63;101645.94;4990686;28;20173;-71
2021/04/23 09:08:34;;;;;;;2.50;2.00;;;;;;;8.25;60.47;101648.78;4990761;28;20172;-71
2021/04/23 09:11:14;;;;;;;0.60;0.60;;;;;;;8.39;58.88;101651.81;4990919;28;20219;-72
2021/04/23 09:13:51;;;;;;;2.27;2.07;;;;;;;8.14;60.35;101652.53;4994458;28;20181;-71
2021/04/23 09:16:19;;;;;;;1.93;1.17;;;;;;;8.12;61.81;101651.97;4994645;28;20243;-72
2021/04/23 09:18:44;;;;;;;0.20;0.20;;;;;;;8.03;62.27;101646.22;4994377;28;20227;-72
2021/04/23 09:21:14;;;;;;;3.13;0.63;;;;;;;8.07;61.77;101656.28;4994768;28;20600;-72
2021/04/23 09:23:51;;;;;;;4.53;1.57;;;;;;;8.25;61.63;101651.50;4994299;28;20216;-72
2021/04/23 09:26:43;;;;;;;3.17;1.53;;;;;;;8.41;60.94;101655.13;4994837;28;20529;-72
2021/04/23 09:29:23;;;;;;;1.43;1.23;;;;;;;8.54;59.79;101660.06;4992852;28;20280;-72
2021/04/23 09:31:48;;;;;;;1.70;1.60;;;;;;;8.29;59.28;101658.03;4994179;28;20520;-71
2021/04/23 09:34:15;;;;;;;1.80;1.37;;;;;;;8.38;59.33;101656.44;4994156;28;20176;-71
2021/04/23 09:36:46;;;;;;;0.30;0.30;;;;;;;8.61;58.76;101657.91;4994109;28;20526;-71
2021/04/23 09:39:14;;;;;;;1.27;1.00;;;;;;;8.68;59.19;101649.47;4994584;28;20169;-71
2021/04/23 09:41:56;;;;;;;0.60;0.60;;;;;;;8.58;58.39;101642.91;4993826;28;20192;-71
2021/04/23 09:44:24;;;;;;;3.80;1.27;;;;;;;8.65;57.43;101648.91;4994062;28;20177;-72
2021/04/23 09:46:57;;;;;;;1.47;1.00;;;;;;;8.83;57.13;101654.97;4993902;28;20177;-72
2021/04/23 09:49:22;;;;;;;5.60;1.47;;;;;;;8.95;56.70;101639.16;4993943;28;20182;-71
2021/04/23 09:51:48;;;;;;;1.37;1.17;;;;;;;8.77;57.32;101648.69;4993659;28;20251;-71
2021/04/23 09:54:18;;;;;;;1.00;1.00;;;;;;;8.80;57.04;101648.13;4993727;28;20260;-71
2021/04/23 09:56:44;;;;;;;4.70;1.00;;;;;;;8.94;57.82;101649.25;4993794;28;20572;-72
2021/04/23 09:59:18;;;;;;;0.60;0.57;;;;;;;9.13;57.80;101651.47;4993835;28;20185;-72
2021/04/23 10:02:03;;;;;;;6.80;1.50;;;;;;;9.16;58.29;101640.00;4994121;28;20720;-72
2021/04/23 10:04:30;;;;;;;2.03;0.67;;;;;;;9.07;57.65;101661.53;4993597;28;20184;-74
2021/04/23 10:07:14;;;;;;;4.10;0.93;;;;;;;8.76;55.56;101657.13;4992228;28;20387;-71
2021/04/23 10:10:00;;;;;;;2.10;1.40;;;;;;;8.79;57.47;101660.13;4993652;28;20752;-71
2021/04/23 10:12:38;;;;;;;3.57;1.73;;;;;;;9.18;55.46;101663.19;4993501;28;20201;-71
2021/04/23 10:15:04;;;;;;;1.27;0.80;;;;;;;9.38;55.61;101667.81;4993219;28;20260;-70
2021/04/23 10:17:29;;;;;;;1.27;1.20;;;;;;;9.38;55.61;101665.06;4993262;28;20759;-72
2021/04/23 10:19:55;;;;;;;3.63;1.10;;;;;;;9.33;55.02;101659.63;4993154;28;20680;-71
2021/04/23 10:22:22;;;;;;;2.07;1.57;;;;;;;9.27;56.76;101668.09;4992996;28;20177;-72
2021/04/23 10:24:50;;;;;;;1.77;1.30;;;;;;;9.49;57.97;101664.00;4993051;28;20184;-72
2021/04/23 10:27:17;;;;;;;1.70;1.50;;;;;;;9.45;56.33;101659.38;4993252;28;20211;-71
2021/04/23 10:29:47;;;;;;;1.87;1.73;;;;;;;9.69;55.76;101659.59;4993136;28;20222;-72
2021/04/23 10:32:14;;;;;;;0.70;0.70;;;;;;;9.87;53.90;101664.50;4992780;28;20203;-71
2021/04/23 10:34:41;;;;;;;5.70;1.60;;;;;;;9.79;54.08;101662.31;4993018;28;20189;-71
2021/04/23 10:37:07;;;;;;;2.90;1.40;;;;;;;9.53;54.29;101656.06;4992900;28;20178;-71
2021/04/23 10:39:34;;;;;;;1.83;1.33;;;;;;;9.56;54.81;101655.53;4992767;28;20181;-71
2021/04/23 10:42:01;;;;;;;2.03;1.63;;;;;;;9.94;54.69;101656.81;4992688;28;20197;-73
2021/04/23 10:44:58;;;;;;;2.07;1.33;;;;;;;10.10;54.96;101643.94;4992833;28;20182;-71
2021/04/23 10:47:33;;;;;;;0.60;0.60;;;;;;;10.13;53.01;101654.31;4993202;28;20182;-73
2021/04/23 10:50:14;;;;;;;2.33;1.43;;;;;;;10.11;54.00;101648.28;4992560;28;20256;-74
2021/04/23 10:53:03;;;;;;;1.87;1.33;;;;;;;10.27;53.73;101660.84;4992613;28;20221;-73
2021/04/23 10:55:52;;;;;;;2.57;1.67;;;;;;;10.18;54.00;101657.03;4992688;28;20169;-72
2021/04/23 10:58:24;;;;;;;0.97;0.90;;;;;;;10.50;53.19;101656.63;4992356;28;20180;-71
2021/04/23 11:00:49;;;;;;;2.60;2.13;;;;;;;10.63;53.44;101650.56;4992467;28;20197;-71
2021/04/23 11:03:22;;;;;;;2.37;1.80;;;;;;;10.47;51.68;101656.38;4992493;28;20504;-71
2021/04/23 11:05:52;;;;;;;1.10;1.03;;;;;;;10.53;52.53;101649.78;4992367;28;20185;-71
2021/04/23 11:08:18;;;;;;;2.37;1.93;;;;;;;10.35;51.02;101645.78;4992308;28;20538;-71
2021/04/23 11:11:02;;;;;;;2.40;1.57;;;;;;;10.27;51.61;101649.94;4992297;28;20657;-73
2021/04/23 11:13:35;;;;;;;1.00;0.97;;;;;;;10.38;52.48;101646.03;4992095;28;20174;-73
2021/04/23 11:16:25;;;;;;;3.67;1.73;;;;;;;10.25;54.00;101659.47;4992239;28;20193;-71
2021/04/23 11:18:56;;;;;;;2.27;1.17;;;;;;;9.89;55.05;101654.09;4992097;28;20177;-72
2021/04/23 11:21:30;;;;;;;6.57;1.47;;;;;;;9.96;55.94;101651.88;4992338;28;20668;-72
2021/04/23 11:24:15;;;;;;;1.53;1.43;;;;;;;10.44;54.73;101646.84;4991897;28;20169;-73
2021/04/23 11:27:03;;;;;;;4.10;1.40;;;;;;;10.69;53.66;101657.63;4991969;28;20260;-73
2021/04/23 11:29:40;;;;;;;2.07;1.33;;;;;;;10.77;50.55;101639.81;4992015;28;20205;-74
2021/04/23 11:32:12;;;;;;;0.90;0.90;;;;;;;10.69;51.01;101641.22;4991712;28;20212;-76
2021/04/23 11:34:42;;;;;;;4.60;1.43;;;;;;;10.90;52.95;101650.13;4991271;28;20177;-75
2021/04/23 11:37:12;;;;;;;1.77;1.30;;;;;;;10.87;51.54;101658.06;4991750;28;20183;-72